createdAt,value
2019-01-29T00:00:34.057Z,99115.63
2019-01-29T00:03:03.385Z,99126.02
2019-01-29T00:05:32.745Z,99120.34
2019-01-29T00:08:01.719Z,99113.09
2019-01-29T00:10:30.349Z,99109.95
2019-01-29T00:12:59.329Z,99129.36
2019-01-29T00:15:28.256Z,99136.65
2019-01-29T00:17:57.490Z,99120.03
2019-01-29T00:20:26.133Z,99126.89
2019-01-29T00:22:55.879Z,99135.66
2019-01-29T00:25:25.554Z,99141.17
2019-01-29T00:27:54.963Z,99124.16
2019-01-29T00:30:24.731Z,99128.71
2019-01-29T00:32:54.177Z,99156.13
2019-01-29T00:35:23.407Z,99158.03
2019-01-29T00:37:52.712Z,99147.64
2019-01-29T00:40:22.426Z,99153.30
2019-01-29T00:42:51.805Z,99134.18
2019-01-29T00:45:21.656Z,99160.36
2019-01-29T00:47:50.948Z,99157.00
2019-01-29T00:50:20.620Z,99150.97
2019-01-29T00:52:50.363Z,99156.92
2019-01-29T00:55:19.879Z,99157.44
2019-01-29T00:57:49.292Z,99155.21
2019-01-29T01:00:19.897Z,99154.78
2019-01-29T01:02:48.448Z,99171.95
2019-01-29T01:05:18.109Z,99175.28
2019-01-29T01:07:47.691Z,99173.97
2019-01-29T01:10:18.889Z,99178.78
2019-01-29T01:12:48.605Z,99176.98
2019-01-29T01:15:18.254Z,99182.62
2019-01-29T01:17:48.062Z,99192.02
2019-01-29T01:20:18.530Z,99185.48
2019-01-29T01:22:51.185Z,99215.91
2019-01-29T01:25:19.450Z,99203.21
2019-01-29T01:27:48.768Z,99198.48
2019-01-29T01:30:19.549Z,99221.98
2019-01-29T01:32:48.813Z,99203.05
2019-01-29T01:35:17.792Z,99214.52
2019-01-29T01:37:46.375Z,99215.03
2019-01-29T01:40:24.552Z,99217.97
2019-01-29T01:42:53.415Z,99220.59
2019-01-29T01:45:22.284Z,99217.37
2019-01-29T01:47:51.208Z,99215.55
2019-01-29T01:50:20.175Z,99224.83
2019-01-29T01:52:49.083Z,99230.87
2019-01-29T01:55:19.560Z,99235.59
2019-01-29T01:57:48.891Z,99231.50
2019-01-29T02:00:22.048Z,99241.77
2019-01-29T02:02:49.942Z,99231.98
2019-01-29T02:05:18.588Z,99235.42
2019-01-29T02:07:47.748Z,99237.65
2019-01-29T02:10:22.999Z,99234.40
2019-01-29T02:12:52.347Z,99231.30
2019-01-29T02:15:21.731Z,99241.77
2019-01-29T02:17:50.771Z,99247.41
2019-01-29T02:20:20.191Z,99243.41
2019-01-29T02:22:50.414Z,99247.73
2019-01-29T02:25:20.573Z,99248.24
2019-01-29T02:27:49.573Z,99254.16
2019-01-29T02:30:20.736Z,99252.94
2019-01-29T02:32:50.611Z,99255.98
2019-01-29T02:35:19.463Z,99252.29
2019-01-29T02:37:48.036Z,99259.44
2019-01-29T02:40:21.751Z,99257.41
2019-01-29T02:42:53.390Z,99263.53
2019-01-29T02:45:23.796Z,99264.76
2019-01-29T02:47:54.288Z,99263.33
2019-01-29T02:50:24.739Z,99268.09
2019-01-29T02:52:57.166Z,99268.38
2019-01-29T02:55:29.890Z,99269.69
2019-01-29T02:57:58.942Z,99265.47
2019-01-29T03:00:28.873Z,99275.20
2019-01-29T03:02:59.389Z,99269.28
2019-01-29T03:05:29.491Z,99276.31
2019-01-29T03:08:15.759Z,99270.36
2019-01-29T03:11:07.145Z,99271.75
2019-01-29T03:14:20.453Z,99273.21
2019-01-29T03:16:54.824Z,99284.28
2019-01-29T03:19:42.222Z,99281.10
2019-01-29T03:25:44.265Z,99294.16
2019-01-29T03:28:15.992Z,99299.13
2019-01-29T03:30:54.010Z,99305.80
2019-01-29T03:33:26.977Z,99304.61
2019-01-29T03:36:19.888Z,99303.90
2019-01-29T03:38:59.558Z,99310.97
2019-01-29T03:41:37.232Z,99299.17
2019-01-29T03:44:28.060Z,99300.56
2019-01-29T03:47:20.031Z,99310.53
2019-01-29T03:49:49.310Z,99300.87
2019-01-29T03:52:30.161Z,99306.04
2019-01-29T03:55:00.598Z,99311.00
2019-01-29T03:57:29.772Z,99310.02
2019-01-29T03:59:58.379Z,99308.19
2019-01-29T04:02:28.394Z,99317.95
2019-01-29T04:05:10.822Z,99316.65
2019-01-29T04:07:41.803Z,99311.92
2019-01-29T04:10:15.678Z,99318.47
2019-01-29T04:12:45.502Z,99331.45
2019-01-29T04:15:15.672Z,99323.67
2019-01-29T04:17:44.268Z,99314.50
2019-01-29T04:20:18.378Z,99316.32
2019-01-29T04:22:49.327Z,99339.07
2019-01-29T04:25:20.972Z,99316.52
2019-01-29T04:27:52.754Z,99317.20
2019-01-29T04:30:24.412Z,99325.88
2019-01-29T04:32:53.978Z,99324.50
2019-01-29T04:35:27.884Z,99330.61
2019-01-29T04:38:00.128Z,99331.13
2019-01-29T04:40:43.690Z,99334.54
2019-01-29T04:43:38.993Z,99340.38
2019-01-29T04:46:10.793Z,99340.23
2019-01-29T04:49:06.979Z,99344.80
2019-01-29T04:51:35.546Z,99346.98
2019-01-29T04:54:06.461Z,99351.42
2019-01-29T04:56:40.741Z,99357.17
2019-01-29T04:59:10.633Z,99359.52
2019-01-29T05:01:47.417Z,99359.80
2019-01-29T05:04:32.311Z,99360.31
2019-01-29T05:07:28.543Z,99365.12
2019-01-29T05:10:22.921Z,99360.78
2019-01-29T05:13:10.040Z,99360.86
2019-01-29T05:16:14.011Z,99358.72
2019-01-29T05:19:03.930Z,99361.09
2019-01-29T05:21:53.639Z,99360.98
2019-01-29T05:24:30.772Z,99355.86
2019-01-29T05:27:11.290Z,99363.72
2019-01-29T05:29:51.098Z,99362.41
2019-01-29T05:32:23.523Z,99360.20
2019-01-29T05:34:57.944Z,99360.83
2019-01-29T05:37:35.443Z,99358.36
2019-01-29T05:40:14.029Z,99363.16
2019-01-29T05:43:02.926Z,99371.02
2019-01-29T05:48:28.995Z,99372.72
2019-01-29T05:51:03.260Z,99376.58
2019-01-29T05:53:33.385Z,99371.82
2019-01-29T05:56:01.979Z,99370.56
2019-01-29T05:58:35.863Z,99378.80
2019-01-29T06:01:07.359Z,99382.73
2019-01-29T06:06:49.886Z,99387.98
2019-01-29T06:09:24.127Z,99375.75
2019-01-29T06:11:56.351Z,99381.50
2019-01-29T06:14:28.918Z,99383.73
2019-01-29T06:17:00.250Z,99387.54
2019-01-29T06:19:29.168Z,99391.71
2019-01-29T06:22:00.416Z,99394.21
2019-01-29T06:24:30.009Z,99389.28
2019-01-29T06:27:14.695Z,99388.30
2019-01-29T06:29:50.831Z,99393.73
2019-01-29T06:32:24.133Z,99397.34
2019-01-29T06:34:56.014Z,99394.52
2019-01-29T06:37:29.865Z,99409.57
2019-01-29T06:39:59.328Z,99405.20
2019-01-29T06:42:28.877Z,99403.09
2019-01-29T06:44:57.620Z,99407.19
2019-01-29T06:47:36.632Z,99407.50
2019-01-29T06:50:08.838Z,99406.31
2019-01-29T06:52:39.824Z,99412.27
2019-01-29T06:55:18.197Z,99416.74
2019-01-29T06:57:56.103Z,99413.38
2019-01-29T07:00:40.227Z,99416.27
2019-01-29T07:03:37.557Z,99418.30
2019-01-29T07:06:29.104Z,99421.59
2019-01-29T07:08:58.843Z,99430.09
2019-01-29T07:11:37.913Z,99423.73
2019-01-29T07:14:18.024Z,99433.84
2019-01-29T07:17:18.840Z,99423.30
2019-01-29T07:19:55.382Z,99418.20
2019-01-29T07:22:26.058Z,99414.44
2019-01-29T07:25:04.401Z,99424.78
2019-01-29T07:27:44.056Z,99431.94
2019-01-29T07:30:20.337Z,99426.89
2019-01-29T07:32:55.465Z,99433.24
2019-01-29T07:35:24.981Z,99428.13
2019-01-29T07:37:55.333Z,99433.88
2019-01-29T07:40:24.316Z,99428.39
2019-01-29T07:42:53.439Z,99436.44
2019-01-29T07:45:23.169Z,99428.45
2019-01-29T07:47:52.448Z,99427.59
2019-01-29T07:50:21.329Z,99428.90
2019-01-29T07:52:49.949Z,99429.95
2019-01-29T07:55:20.040Z,99426.83
2019-01-29T07:57:48.918Z,99422.52
2019-01-29T08:00:17.930Z,99424.27
2019-01-29T08:02:49.372Z,99429.06
2019-01-29T08:05:18.155Z,99433.18
2019-01-29T08:07:50.841Z,99431.73
2019-01-29T08:10:19.473Z,99439.85
2019-01-29T08:12:48.708Z,99436.84
2019-01-29T08:15:17.964Z,99437.51
2019-01-29T08:17:46.965Z,99439.64
2019-01-29T08:20:16.453Z,99441.02
2019-01-29T08:22:45.762Z,99441.34
2019-01-29T08:25:15.184Z,99449.10
2019-01-29T08:27:44.082Z,99449.61
2019-01-29T08:30:12.955Z,99451.63
2019-01-29T08:32:49.351Z,99456.29
2019-01-29T08:35:32.142Z,99456.66
2019-01-29T08:38:01.495Z,99454.13
2019-01-29T08:40:30.891Z,99458.30
2019-01-29T08:42:59.468Z,99472.81
2019-01-29T08:45:29.507Z,99466.03
2019-01-29T08:47:58.368Z,99468.31
2019-01-29T08:50:27.013Z,99473.08
2019-01-29T08:52:55.791Z,99469.50
2019-01-29T08:55:24.731Z,99472.31
2019-01-29T08:57:53.815Z,99471.93
2019-01-29T09:00:23.083Z,99458.97
2019-01-29T09:02:52.075Z,99465.36
2019-01-29T09:05:21.299Z,99471.19
2019-01-29T09:07:50.265Z,99472.66
2019-01-29T09:10:19.358Z,99468.42
2019-01-29T09:12:48.259Z,99462.67
2019-01-29T09:15:17.716Z,99471.14
2019-01-29T09:17:46.388Z,99474.23
2019-01-29T09:20:16.553Z,99468.27
2019-01-29T09:22:46.115Z,99469.13
2019-01-29T09:25:20.975Z,99466.52
2019-01-29T09:27:47.068Z,99471.89
2019-01-29T09:30:18.402Z,99464.16
2019-01-29T09:32:47.206Z,99468.08
2019-01-29T09:35:16.412Z,99464.98
2019-01-29T09:37:45.241Z,99463.61
2019-01-29T09:40:16.022Z,99466.51
2019-01-29T09:42:44.639Z,99471.79
2019-01-29T09:45:15.374Z,99464.34
2019-01-29T09:47:44.230Z,99474.27
2019-01-29T09:50:15.836Z,99466.59
2019-01-29T09:52:44.440Z,99464.29
2019-01-29T09:55:14.933Z,99466.17
2019-01-29T09:57:44.234Z,99466.13
2019-01-29T10:00:19.073Z,99467.87
2019-01-29T10:02:47.696Z,99465.78
2019-01-29T10:05:16.263Z,99466.38
2019-01-29T10:07:45.168Z,99464.58
2019-01-29T10:10:14.516Z,99465.30
2019-01-29T10:12:43.295Z,99463.70
2019-01-29T10:15:15.079Z,99461.80
2019-01-29T10:17:44.030Z,99418.60
2019-01-29T10:20:12.604Z,99464.47
2019-01-29T10:22:41.506Z,99461.00
2019-01-29T10:25:14.750Z,99455.52
2019-01-29T10:27:43.422Z,99445.85
2019-01-29T10:30:13.523Z,99452.08
2019-01-29T10:32:42.270Z,99449.91
2019-01-29T10:35:14.607Z,99456.53
2019-01-29T10:37:43.741Z,99450.48
2019-01-29T10:40:17.388Z,99438.69
2019-01-29T10:42:46.365Z,99447.20
2019-01-29T10:45:17.564Z,99441.25
2019-01-29T10:47:48.156Z,99435.17
2019-01-29T10:50:23.613Z,99433.73
2019-01-29T10:52:53.875Z,99433.25
2019-01-29T10:55:23.188Z,99431.43
2019-01-29T10:57:52.346Z,99433.66
2019-01-29T11:00:34.923Z,99429.70
2019-01-29T11:03:04.065Z,99424.55
2019-01-29T11:05:34.607Z,99433.88
2019-01-29T11:08:03.455Z,99422.34
2019-01-29T11:10:32.457Z,99423.25
2019-01-29T11:13:02.269Z,99425.95
2019-01-29T11:15:35.731Z,99419.77
2019-01-29T11:18:08.757Z,99416.73
2019-01-29T11:20:39.110Z,99412.56
2019-01-29T11:23:09.541Z,99404.80
2019-01-29T11:25:39.191Z,99404.34
2019-01-29T11:28:09.480Z,99403.62
2019-01-29T11:30:40.587Z,99394.93
2019-01-29T11:33:12.611Z,99390.81
2019-01-29T11:35:44.134Z,99384.37
2019-01-29T11:38:16.661Z,99381.88
2019-01-29T11:40:46.027Z,99379.77
2019-01-29T11:43:15.744Z,99376.85
2019-01-29T11:45:52.465Z,99379.42
2019-01-29T11:48:22.053Z,99371.50
2019-01-29T11:50:51.639Z,99372.94
2019-01-29T11:53:21.329Z,99372.86
2019-01-29T11:55:53.616Z,99377.31
2019-01-29T11:58:23.361Z,99372.53
2019-01-29T12:00:56.828Z,99371.91
2019-01-29T12:03:26.774Z,99370.61
2019-01-29T12:05:56.453Z,99374.36
2019-01-29T12:08:25.779Z,99363.47
2019-01-29T12:10:55.481Z,99368.33
2019-01-29T12:13:25.085Z,99362.08
2019-01-29T12:15:54.899Z,99357.81
2019-01-29T12:18:24.621Z,99360.23
2019-01-29T12:20:54.015Z,99357.17
2019-01-29T12:23:23.224Z,99353.61
2019-01-29T12:25:52.174Z,99347.05
2019-01-29T12:28:21.065Z,99348.80
2019-01-29T12:30:50.610Z,99343.33
2019-01-29T12:33:19.167Z,99342.44
2019-01-29T12:35:48.716Z,99338.18
2019-01-29T12:38:17.626Z,99332.52
2019-01-29T12:40:46.486Z,99337.70
2019-01-29T12:43:15.760Z,99331.16
2019-01-29T12:45:45.088Z,99335.08
2019-01-29T12:48:14.011Z,99334.61
2019-01-29T12:50:48.237Z,99329.25
2019-01-29T12:53:19.893Z,99333.01
2019-01-29T12:55:49.223Z,99334.97
2019-01-29T12:58:18.956Z,99331.76
2019-01-29T13:00:53.864Z,99324.73
2019-01-29T13:03:22.793Z,99320.17
2019-01-29T13:05:51.722Z,99311.22
2019-01-29T13:08:21.017Z,99316.88
2019-01-29T13:10:49.613Z,99309.84
2019-01-29T13:13:18.458Z,99309.20
2019-01-29T13:15:47.035Z,99303.46
2019-01-29T13:18:15.615Z,99303.20
2019-01-29T13:20:44.158Z,99296.10
2019-01-29T13:23:12.734Z,99290.34
2019-01-29T13:25:41.277Z,99288.98
2019-01-29T13:28:09.851Z,99284.50
2019-01-29T13:30:38.783Z,99283.45
2019-01-29T13:33:09.813Z,99287.83
2019-01-29T13:35:38.746Z,99291.57
2019-01-29T13:38:08.802Z,99287.16
2019-01-29T13:40:37.389Z,99296.38
2019-01-29T13:43:06.317Z,99292.97
2019-01-29T13:45:34.879Z,99284.97
2019-01-29T13:48:03.444Z,99281.38
2019-01-29T13:50:35.283Z,99278.98
2019-01-29T13:53:03.871Z,99273.70
2019-01-29T13:55:32.432Z,99273.75
2019-01-29T13:58:01.287Z,99272.39
2019-01-29T14:00:31.533Z,99271.06
2019-01-29T14:03:00.621Z,99262.92
2019-01-29T14:05:29.227Z,99258.64
2019-01-29T14:07:57.765Z,99256.66
2019-01-29T14:10:26.386Z,99256.33
2019-01-29T14:12:54.970Z,99250.36
2019-01-29T14:15:31.019Z,99253.59
2019-01-29T14:17:59.577Z,99240.06
2019-01-29T14:20:28.135Z,99242.20
2019-01-29T14:22:56.705Z,99243.47
2019-01-29T14:25:25.245Z,99244.09
2019-01-29T14:27:54.159Z,99239.42
2019-01-29T14:30:22.755Z,99240.08
2019-01-29T14:32:51.279Z,99240.11
2019-01-29T14:35:22.094Z,99235.91
2019-01-29T14:38:44.359Z,99238.22
2019-01-29T14:41:13.114Z,99236.53
2019-01-29T14:43:45.115Z,99236.11
2019-01-29T14:46:14.074Z,99239.63
2019-01-29T14:48:42.621Z,99236.11
2019-01-29T14:51:11.188Z,99235.46
2019-01-29T14:53:40.136Z,99235.35
2019-01-29T14:56:09.380Z,99230.97
2019-01-29T14:58:37.990Z,99221.63
2019-01-29T15:01:06.872Z,99221.19
2019-01-29T15:03:35.417Z,99225.83
2019-01-29T15:06:03.992Z,99210.67
2019-01-29T15:08:32.541Z,99212.83
2019-01-29T15:11:01.127Z,99209.52
2019-01-29T15:13:29.712Z,99212.38
2019-01-29T15:16:05.694Z,99217.47
2019-01-29T15:18:38.067Z,99216.36
2019-01-29T15:21:06.616Z,99219.59
2019-01-29T15:23:35.181Z,99216.48
2019-01-29T15:26:03.749Z,99213.77
2019-01-29T15:28:32.287Z,99208.72
2019-01-29T15:31:00.868Z,99213.67
2019-01-29T15:33:29.734Z,99213.27
2019-01-29T15:35:58.301Z,99213.64
2019-01-29T15:38:26.849Z,99203.87
2019-01-29T15:40:55.433Z,99202.55
2019-01-29T15:43:23.978Z,99199.13
2019-01-29T15:45:52.590Z,99191.15
2019-01-29T15:48:21.143Z,99189.44
2019-01-29T15:50:49.694Z,99189.12
2019-01-29T15:53:18.283Z,99184.48
2019-01-29T15:55:46.826Z,99183.09
2019-01-29T15:58:15.684Z,99183.86
2019-01-29T16:00:44.260Z,99178.37
2019-01-29T16:03:13.190Z,99180.06
2019-01-29T16:05:42.076Z,99176.23
2019-01-29T16:08:10.973Z,99182.55
2019-01-29T16:10:40.050Z,99181.62
2019-01-29T16:13:08.768Z,99182.36
2019-01-29T16:15:37.368Z,99178.44
2019-01-29T16:18:05.937Z,99175.83
2019-01-29T16:20:34.521Z,99173.02
2019-01-29T16:23:03.072Z,99173.98
2019-01-29T16:25:31.652Z,99166.59
2019-01-29T16:28:00.229Z,99160.40
2019-01-29T16:30:28.866Z,99164.20
2019-01-29T16:32:57.412Z,99159.61
2019-01-29T16:35:28.802Z,99156.47
2019-01-29T16:37:57.775Z,99160.61
2019-01-29T16:40:26.725Z,99154.14
2019-01-29T16:42:56.629Z,99157.03
2019-01-29T16:45:30.740Z,99156.02
2019-01-29T16:48:00.570Z,99152.55
2019-01-29T16:50:29.201Z,99149.48
2019-01-29T16:52:57.860Z,99151.73
2019-01-29T16:55:26.734Z,99150.08
2019-01-29T16:57:55.290Z,99143.41
2019-01-29T17:00:28.443Z,99140.99
2019-01-29T17:02:56.790Z,99143.80
2019-01-29T17:05:25.343Z,99140.55
2019-01-29T17:07:54.601Z,99142.11
2019-01-29T17:10:24.078Z,99139.56
2019-01-29T17:12:53.001Z,99132.05
2019-01-29T17:15:25.280Z,99130.92
2019-01-29T17:17:54.454Z,99122.16
2019-01-29T17:20:25.936Z,99121.34
2019-01-29T17:22:55.322Z,99128.34
2019-01-29T17:25:24.196Z,99128.06
2019-01-29T17:27:52.780Z,99124.27
2019-01-29T17:30:30.792Z,99124.70
2019-01-29T17:32:59.376Z,99127.88
2019-01-29T17:35:28.462Z,99121.14
2019-01-29T17:37:57.062Z,99125.39
2019-01-29T17:40:25.657Z,99124.81
2019-01-29T17:42:57.150Z,99120.95
2019-01-29T17:45:28.269Z,99121.94
2019-01-29T17:47:56.929Z,99124.63
2019-01-29T17:50:28.166Z,99122.66
2019-01-29T17:52:56.743Z,99120.23
2019-01-29T17:55:25.964Z,99120.14
2019-01-29T17:57:54.544Z,99117.85
2019-01-29T18:00:27.891Z,99121.05
2019-01-29T18:02:56.445Z,99121.42
2019-01-29T18:05:25.028Z,99117.65
2019-01-29T18:07:53.626Z,99122.48
2019-01-29T18:10:22.177Z,99117.23
2019-01-29T18:12:51.071Z,99114.12
2019-01-29T18:15:21.529Z,99108.63
2019-01-29T18:17:50.482Z,99114.20
2019-01-29T18:20:19.407Z,99109.37
2019-01-29T18:22:48.337Z,99107.64
2019-01-29T18:25:16.894Z,99103.73
2019-01-29T18:27:45.774Z,99101.19
2019-01-29T18:30:19.885Z,99101.43
2019-01-29T18:32:48.437Z,99092.23
2019-01-29T18:35:16.997Z,99100.27
2019-01-29T18:37:45.771Z,99091.73
2019-01-29T18:40:16.955Z,99085.98
2019-01-29T18:42:45.534Z,99088.36
2019-01-29T18:45:14.624Z,99085.58
2019-01-29T18:47:43.183Z,99083.55
2019-01-29T18:50:13.460Z,99076.03
2019-01-29T18:52:43.304Z,99081.66
2019-01-29T18:55:12.163Z,99076.93
2019-01-29T18:57:40.724Z,99076.78
2019-01-29T19:00:17.854Z,99067.51
2019-01-29T19:02:46.413Z,99068.45
2019-01-29T19:05:15.419Z,99072.48
2019-01-29T19:07:44.933Z,99064.70
2019-01-29T19:10:15.638Z,99063.92
2019-01-29T19:12:44.250Z,99065.97
2019-01-29T19:15:18.126Z,99066.52
2019-01-29T19:17:46.720Z,99063.22
2019-01-29T19:20:16.471Z,99056.04
2019-01-29T19:22:45.044Z,99056.20
2019-01-29T19:25:14.628Z,99055.03
2019-01-29T19:27:43.528Z,99057.20
2019-01-29T19:30:15.780Z,99055.91
2019-01-29T19:32:44.354Z,99054.83
2019-01-29T19:35:12.970Z,99054.03
2019-01-29T19:37:41.537Z,99052.45
2019-01-29T19:40:10.737Z,99048.05
2019-01-29T19:42:39.361Z,99042.44
2019-01-29T19:45:11.474Z,99049.09
2019-01-29T19:47:40.052Z,99047.92
2019-01-29T19:50:12.783Z,99044.81
2019-01-29T19:52:41.374Z,99035.44
2019-01-29T19:55:09.941Z,99031.33
2019-01-29T19:57:38.525Z,99035.49
2019-01-29T20:00:12.063Z,99040.23
2019-01-29T20:02:40.627Z,99030.69
2019-01-29T20:05:09.471Z,99041.35
2019-01-29T20:07:38.065Z,99034.70
2019-01-29T20:10:07.885Z,99035.27
2019-01-29T20:12:36.454Z,99039.83
2019-01-29T20:15:06.423Z,99039.22
2019-01-29T20:17:35.018Z,99036.41
2019-01-29T20:20:03.586Z,99030.08
2019-01-29T20:22:32.172Z,99032.24
2019-01-29T20:25:00.729Z,99035.41
2019-01-29T20:27:29.344Z,99029.78
2019-01-29T20:29:57.893Z,99033.09
2019-01-29T20:32:26.791Z,99036.75
2019-01-29T20:34:55.381Z,99025.34
2019-01-29T20:37:23.928Z,99020.89
2019-01-29T20:39:52.525Z,99015.08
2019-01-29T20:42:21.080Z,99020.10
2019-01-29T20:44:49.646Z,99012.56
2019-01-29T20:47:18.303Z,99001.64
2019-01-29T20:49:46.861Z,98993.84
2019-01-29T20:52:15.428Z,98993.09
2019-01-29T20:54:44.006Z,98992.84
2019-01-29T20:57:12.562Z,98991.09
2019-01-29T20:59:41.164Z,98986.36
2019-01-29T21:02:09.728Z,98988.53
2019-01-29T21:04:38.291Z,98985.05
2019-01-29T21:07:06.893Z,98987.64
2019-01-29T21:09:35.444Z,98977.19
2019-01-29T21:12:04.084Z,98979.02
2019-01-29T21:14:32.644Z,98975.66
2019-01-29T21:17:01.226Z,98967.36
2019-01-29T21:19:29.809Z,98967.91
2019-01-29T21:21:58.409Z,98965.08
2019-01-29T21:24:26.987Z,98967.30
2019-01-29T21:26:55.555Z,98965.81
2019-01-29T21:29:24.164Z,98959.55
2019-01-29T21:31:52.724Z,98962.92
2019-01-29T21:34:21.270Z,98964.17
2019-01-29T21:36:49.874Z,98965.97
2019-01-29T21:39:18.418Z,98964.78
2019-01-29T21:41:46.972Z,98963.22
2019-01-29T21:44:15.898Z,98955.37
2019-01-29T21:46:44.456Z,98960.45
2019-01-29T21:49:13.986Z,98956.02
2019-01-29T21:51:42.643Z,98957.29
2019-01-29T21:54:11.248Z,98952.40
2019-01-29T21:56:39.799Z,98955.42
2019-01-29T21:59:13.401Z,98955.45
2019-01-29T22:01:38.680Z,98954.43
2019-01-29T22:04:07.229Z,98951.25
2019-01-29T22:06:35.782Z,98949.06
2019-01-29T22:09:07.767Z,98942.94
2019-01-29T22:11:36.327Z,98937.98
2019-01-29T22:14:04.890Z,98938.78
2019-01-29T22:16:33.483Z,98938.51
2019-01-29T22:19:02.052Z,98939.34
2019-01-29T22:21:30.599Z,98935.41
2019-01-29T22:23:59.195Z,98925.13
2019-01-29T22:26:27.743Z,98927.97
2019-01-29T22:28:56.294Z,98924.84
2019-01-29T22:31:24.868Z,98920.02
2019-01-29T22:33:53.817Z,98920.58
2019-01-29T22:36:22.371Z,98912.67
2019-01-29T22:38:50.936Z,98916.79
2019-01-29T22:41:19.600Z,98914.19
2019-01-29T22:43:48.154Z,98913.17
2019-01-29T22:46:16.712Z,98908.98
2019-01-29T22:48:45.326Z,98904.72
2019-01-29T22:51:14.198Z,98906.77
2019-01-29T22:53:42.756Z,98900.92
2019-01-29T22:56:11.343Z,98893.49
2019-01-29T22:58:39.923Z,98893.13
2019-01-29T23:01:20.321Z,98891.03
2019-01-29T23:04:02.971Z,98888.67
2019-01-29T23:06:52.085Z,98887.95
2019-01-29T23:09:20.676Z,98888.68
2019-01-29T23:11:49.232Z,98887.78
2019-01-29T23:14:17.785Z,98882.55
2019-01-29T23:16:46.412Z,98879.63
2019-01-29T23:19:15.003Z,98879.16
2019-01-29T23:21:43.552Z,98875.59
2019-01-29T23:24:12.158Z,98875.79
2019-01-29T23:26:40.713Z,98873.91
2019-01-29T23:29:09.278Z,98869.27
2019-01-29T23:31:37.855Z,98865.48
2019-01-29T23:34:06.437Z,98867.17
2019-01-29T23:36:35.000Z,98861.27
2019-01-29T23:39:04.613Z,98861.92
2019-01-29T23:41:33.166Z,98854.33
2019-01-29T23:44:01.837Z,98851.33
2019-01-29T23:46:30.389Z,98840.84
2019-01-29T23:48:59.248Z,98836.34
2019-01-29T23:51:27.826Z,98832.33
2019-01-29T23:53:56.416Z,98835.29
2019-01-29T23:56:24.997Z,98832.39
2019-01-29T23:58:53.543Z,98826.73
